Time;durP1;ratioP1;P1;durP2;ratioP2;P2;SDS_P1;SDS_P2;PMS_P1;PMS_P2;Temp;Humidity;BMP_temperature;BMP_pressure;BME280_temperature;BME280_humidity;BME280_pressure;Samples;Min_cycle;Max_cycle;Signal;HPM_P1;HPM_P2
2023/01/24 00:00:11;;;;;;;;;;;;;;;12.37;68.90;103584.16;1259428;23;769;-71
2023/01/24 00:01:01;;;;;;;;;;;;;;;12.36;68.92;103584.25;1259826;23;658;-71
2023/01/24 00:01:52;;;;;;;;;;;;;;;12.31;68.89;103589.72;1259912;23;678;-71
2023/01/24 00:02:42;;;;;;;;;;;;;;;12.33;69.15;103584.31;1259543;23;615;-72
2023/01/24 00:03:32;;;;;;;;;;;;;;;12.34;68.11;103580.72;1259977;23;643;-71
2023/01/24 00:04:23;;;;;;;;;;;;;;;12.31;69.23;103578.13;1259572;23;630;-71
2023/01/24 00:05:13;;;;;;;;;;;;;;;12.33;69.04;103584.31;1259671;23;697;-71
2023/01/24 00:06:04;;;;;;;;;;;;;;;12.34;68.27;103580.72;1260731;23;669;-71
2023/01/24 00:06:54;;;;;;;;;;;;;;;12.34;68.63;103586.06;1259637;23;662;-71
2023/01/24 00:07:45;;;;;;;;;;;;;;;12.33;68.20;103578.97;1259833;23;697;-71
2023/01/24 00:08:35;;;;;;;;;;;;;;;12.33;68.15;103587.00;1259812;23;630;-71
2023/01/24 00:09:25;;;;;;;;;;;;;;;12.33;68.15;103576.31;1259797;23;685;-71
2023/01/24 00:10:16;;;;;;;;;;;;;;;12.30;68.10;103576.38;1259624;23;610;-70
2023/01/24 00:11:06;;;;;;;;;;;;;;;12.30;68.30;103576.38;1259702;23;682;-70
2023/01/24 00:11:57;;;;;;;;;;;;;;;12.30;68.99;103581.72;1259841;23;796;-71
2023/01/24 00:12:47;;;;;;;;;;;;;;;12.30;68.56;103584.41;1259918;23;611;-71
2023/01/24 00:13:38;;;;;;;;;;;;;;;12.29;68.68;103578.19;1254987;23;626;-71
2023/01/24 00:14:28;;;;;;;;;;;;;;;12.31;68.76;103575.47;1255100;23;611;-72
2023/01/24 00:15:18;;;;;;;;;;;;;;;12.33;69.18;103578.97;1261350;23;680;-71
2023/01/24 00:16:09;;;;;;;;;;;;;;;12.33;69.14;103581.66;1260741;23;626;-71
2023/01/24 00:16:59;;;;;;;;;;;;;;;12.33;68.92;103582.53;1254997;23;673;-71
2023/01/24 00:17:50;;;;;;;;;;;;;;;12.34;68.86;103575.38;1255284;23;670;-72
2023/01/24 00:18:40;;;;;;;;;;;;;;;12.34;69.03;103586.97;1261135;23;629;-71
2023/01/24 00:19:31;;;;;;;;;;;;;;;12.32;68.99;103582.56;1261402;23;696;-72
2023/01/24 00:20:21;;;;;;;;;;;;;;;12.30;68.13;103569.25;1259542;23;648;-71
2023/01/24 00:21:12;;;;;;;;;;;;;;;12.32;68.29;103577.22;1259845;23;653;-71
2023/01/24 00:22:02;;;;;;;;;;;;;;;12.33;68.60;103578.97;1261416;23;634;-72
2023/01/24 00:22:53;;;;;;;;;;;;;;;12.34;68.39;103578.06;1259463;23;614;-71
2023/01/24 00:23:43;;;;;;;;;;;;;;;12.33;68.68;103576.31;1259654;23;555;-71
2023/01/24 00:24:34;;;;;;;;;;;;;;;12.33;68.71;103578.97;1261429;23;606;-71
2023/01/24 00:25:25;;;;;;;;;;;;;;;12.34;68.40;103578.06;1255014;23;712;-71
2023/01/24 00:26:15;;;;;;;;;;;;;;;12.33;68.50;103574.50;1254934;23;628;-71
2023/01/24 00:27:05;;;;;;;;;;;;;;;12.32;68.77;103571.88;1260542;23;646;-71
2023/01/24 00:27:56;;;;;;;;;;;;;;;12.35;69.01;103574.47;1259425;23;603;-71
2023/01/24 00:28:46;;;;;;;;;;;;;;;12.35;68.26;103571.78;1261307;23;685;-71
2023/01/24 00:29:37;;;;;;;;;;;;;;;12.32;68.84;103571.88;1260332;23;665;-71
2023/01/24 00:30:27;;;;;;;;;;;;;;;12.32;68.62;103571.88;1259057;23;626;-71
2023/01/24 00:31:18;;;;;;;;;;;;;;;12.32;68.28;103570.06;1261423;23;637;-71
2023/01/24 00:32:08;;;;;;;;;;;;;;;12.32;68.92;103571.88;1259595;23;549;-71
2023/01/24 00:32:58;;;;;;;;;;;;;;;12.31;68.76;103568.31;1259631;23;701;-71
2023/01/24 00:33:49;;;;;;;;;;;;;;;12.27;68.70;103563.09;1261530;23;649;-71
2023/01/24 00:34:39;;;;;;;;;;;;;;;12.28;68.55;103565.72;1259557;23;615;-70
2023/01/24 00:35:30;;;;;;;;;;;;;;;12.26;68.46;103572.91;1259817;23;659;-70
2023/01/24 00:36:20;;;;;;;;;;;;;;;12.26;68.28;103567.56;1261515;23;629;-71
2023/01/24 00:37:10;;;;;;;;;;;;;;;12.29;68.84;103574.63;1255045;23;712;-70
2023/01/24 00:38:01;;;;;;;;;;;;;;;12.29;68.78;103571.97;1254996;23;618;-70
2023/01/24 00:38:51;;;;;;;;;;;;;;;12.29;68.73;103571.97;1260551;23;622;-71
2023/01/24 00:39:42;;;;;;;;;;;;;;;12.29;69.00;103571.97;1259743;23;1960;-71
2023/01/24 00:40:32;;;;;;;;;;;;;;;12.31;69.23;103575.47;1259788;23;697;-71
2023/01/24 00:41:23;;;;;;;;;;;;;;;12.28;68.77;103575.56;1261213;23;650;-71
2023/01/24 00:42:13;;;;;;;;;;;;;;;12.28;69.09;103575.56;1259583;23;626;-71
2023/01/24 00:43:03;;;;;;;;;;;;;;;12.25;68.46;103571.16;1261486;23;605;-71
2023/01/24 00:43:54;;;;;;;;;;;;;;;12.25;69.41;103576.50;1259442;23;763;-71
2023/01/24 00:44:44;;;;;;;;;;;;;;;12.23;68.78;103566.78;1258991;23;634;-71
2023/01/24 00:45:35;;;;;;;;;;;;;;;12.23;68.63;103562.31;1260077;23;628;-71
2023/01/24 00:46:25;;;;;;;;;;;;;;;12.23;68.37;103564.09;1259600;23;657;-72
2023/01/24 00:47:16;;;;;;;;;;;;;;;12.21;68.71;103563.25;1259849;23;615;-72
2023/01/24 00:48:06;;;;;;;;;;;;;;;12.22;68.76;103570.38;1259553;23;673;-72
2023/01/24 00:48:57;;;;;;;;;;;;;;;12.23;69.59;103561.44;1261280;23;606;-71
2023/01/24 00:49:47;;;;;;;;;;;;;;;12.27;68.73;103568.44;1259752;23;720;-71
2023/01/24 00:50:38;;;;;;;;;;;;;;;12.26;69.30;103558.66;1259966;23;661;-71
2023/01/24 00:51:28;;;;;;;;;;;;;;;12.23;68.42;103551.59;1259408;23;615;-71
2023/01/24 00:52:18;;;;;;;;;;;;;;;12.25;68.76;103554.25;1259604;23;673;-72
2023/01/24 00:53:09;;;;;;;;;;;;;;;12.24;69.14;103557.84;1261359;23;696;-72
2023/01/24 00:53:59;;;;;;;;;;;;;;;12.24;69.37;103558.72;1259500;23;614;-72
2023/01/24 00:54:50;;;;;;;;;;;;;;;12.26;68.41;103556.00;1260275;23;617;-72
2023/01/24 00:55:40;;;;;;;;;;;;;;;12.26;69.03;103551.53;1259495;23;650;-72
2023/01/24 00:56:30;;;;;;;;;;;;;;;12.24;68.30;103556.03;1259706;23;879;-72
2023/01/24 00:57:22;;;;;;;;;;;;;;;12.25;68.36;103557.78;1259597;23;646;-73
2023/01/24 00:58:12;;;;;;;;;;;;;;;12.24;69.22;103556.03;1261275;23;653;-72
2023/01/24 00:59:02;;;;;;;;;;;;;;;12.22;68.93;103548.97;1261649;23;665;-72
2023/01/24 00:59:53;;;;;;;;;;;;;;;12.20;68.54;103556.16;1260181;23;1877;-72
2023/01/24 01:00:43;;;;;;;;;;;;;;;12.22;68.91;103555.19;1259995;23;626;-72
2023/01/24 01:01:34;;;;;;;;;;;;;;;12.22;69.14;103549.84;1260635;23;642;-73
2023/01/24 01:02:25;;;;;;;;;;;;;;;12.25;68.25;103546.22;1261768;23;609;-72
2023/01/24 01:03:15;;;;;;;;;;;;;;;12.23;68.60;103545.38;1261853;23;610;-72
2023/01/24 01:04:06;;;;;;;;;;;;;;;12.21;69.07;103547.22;1255756;23;669;-72
2023/01/24 01:04:56;;;;;;;;;;;;;;;12.20;69.00;103541.00;1255305;23;629;-72
2023/01/24 01:05:47;;;;;;;;;;;;;;;12.18;69.41;103550.00;1261505;23;665;-73
2023/01/24 01:06:37;;;;;;;;;;;;;;;12.18;68.67;103543.72;1260070;23;623;-73
2023/01/24 01:07:27;;;;;;;;;;;;;;;12.18;68.56;103543.72;1260234;23;674;-73
2023/01/24 01:08:18;;;;;;;;;;;;;;;12.21;69.10;103548.09;1259943;23;666;-73
2023/01/24 01:09:08;;;;;;;;;;;;;;;12.21;68.59;103547.22;1260284;23;654;-72
2023/01/24 01:09:59;;;;;;;;;;;;;;;12.21;69.04;103537.41;1260164;23;642;-72
2023/01/24 01:10:49;;;;;;;;;;;;;;;12.18;68.72;103540.19;1259950;23;674;-73
2023/01/24 01:11:41;;;;;;;;;;;;;;;12.18;68.59;103542.00;1260423;23;638;-73
2023/01/24 01:12:31;;;;;;;;;;;;;;;12.18;68.66;103543.72;1255441;23;642;-72
2023/01/24 01:13:22;;;;;;;;;;;;;;;12.18;69.04;103539.31;1255492;23;622;-72
2023/01/24 01:14:12;;;;;;;;;;;;;;;12.19;69.35;103539.25;1261420;23;1057;-72
2023/01/24 01:15:03;;;;;;;;;;;;;;;12.23;68.42;103540.03;1260000;23;638;-72
2023/01/24 01:15:53;;;;;;;;;;;;;;;12.23;68.56;103546.25;1260134;23;642;-72
2023/01/24 01:16:43;;;;;;;;;;;;;;;12.27;68.67;103547.94;1260110;23;645;-71
2023/01/24 01:17:34;;;;;;;;;;;;;;;12.25;68.39;103543.53;1260831;23;693;-71
2023/01/24 01:18:24;;;;;;;;;;;;;;;12.24;69.08;103545.34;1260223;23;658;-71
2023/01/24 01:19:15;;;;;;;;;;;;;;;12.23;69.31;103545.38;1261523;23;709;-70
2023/01/24 01:20:05;;;;;;;;;;;;;;;12.18;69.06;103549.06;1259797;23;1920;-71
2023/01/24 01:20:56;;;;;;;;;;;;;;;12.18;68.84;103551.72;1260273;23;619;-71
2023/01/24 01:21:47;;;;;;;;;;;;;;;12.21;68.71;103549.91;1260015;23;603;-71
2023/01/24 01:22:37;;;;;;;;;;;;;;;12.24;69.25;103547.13;1261660;23;638;-70
2023/01/24 01:23:28;;;;;;;;;;;;;;;12.23;68.44;103546.25;1260134;23;642;-71
2023/01/24 01:24:18;;;;;;;;;;;;;;;12.22;69.15;103544.50;1261631;23;614;-71
2023/01/24 01:25:08;;;;;;;;;;;;;;;12.22;68.39;103549.84;1260361;23;630;-71
2023/01/24 01:25:59;;;;;;;;;;;;;;;12.21;68.45;103544.53;1259787;23;646;-71
2023/01/24 01:26:49;;;;;;;;;;;;;;;12.21;68.72;103539.19;1259981;23;650;-71
2023/01/24 01:27:40;;;;;;;;;;;;;;;12.22;68.69;103546.31;1261847;23;660;-71
2023/01/24 01:28:30;;;;;;;;;;;;;;;12.21;69.11;103544.53;1261037;23;629;-71
2023/01/24 01:29:21;;;;;;;;;;;;;;;12.18;69.37;103546.38;1261689;23;665;-71
2023/01/24 01:30:11;;;;;;;;;;;;;;;12.16;69.08;103548.25;1259952;23;662;-71
2023/01/24 01:31:02;;;;;;;;;;;;;;;12.18;68.58;103559.75;1261667;23;640;-71
2023/01/24 01:31:52;;;;;;;;;;;;;;;12.18;69.28;103556.22;1261739;23;579;-71
2023/01/24 01:32:43;;;;;;;;;;;;;;;12.19;68.83;103549.94;1262102;23;677;-71
2023/01/24 01:33:33;;;;;;;;;;;;;;;12.20;69.39;103553.47;1259953;23;564;-71
2023/01/24 01:34:24;;;;;;;;;;;;;;;12.24;68.29;103545.34;1262068;23;669;-72
2023/01/24 01:35:14;;;;;;;;;;;;;;;12.23;68.67;103551.59;1259792;23;619;-71
2023/01/24 01:36:04;;;;;;;;;;;;;;;12.21;69.04;103544.53;1259982;23;604;-71
2023/01/24 01:36:55;;;;;;;;;;;;;;;12.23;68.57;103542.72;1261825;23;614;-71
2023/01/24 01:37:45;;;;;;;;;;;;;;;12.25;69.31;103548.91;1260023;23;619;-71
2023/01/24 01:38:36;;;;;;;;;;;;;;;12.24;68.54;103547.13;1260232;23;634;-71
2023/01/24 01:39:26;;;;;;;;;;;;;;;12.25;68.92;103546.22;1260199;23;647;-71
2023/01/24 01:40:17;;;;;;;;;;;;;;;12.23;69.24;103550.72;1261552;23;673;-71
2023/01/24 01:41:08;;;;;;;;;;;;;;;12.23;69.12;103548.94;1261641;23;618;-72
2023/01/24 01:41:58;;;;;;;;;;;;;;;12.22;69.10;103557.00;1260068;23;670;-72
2023/01/24 01:42:49;;;;;;;;;;;;;;;12.18;68.77;103550.88;1259534;23;670;-71
2023/01/24 01:44:37;;;;;;;;;;;;;;;12.18;69.38;103546.38;1259913;23;630;-71
2023/01/24 01:44:50;;;;;;;;;;;;;;;12.21;68.61;103555.25;1261659;23;1371;-70
2023/01/24 01:45:40;;;;;;;;;;;;;;;12.21;69.43;103547.22;1259749;23;642;-70
2023/01/24 01:46:30;;;;;;;;;;;;;;;12.24;68.66;103552.47;1261583;23;649;-70
2023/01/24 01:47:21;;;;;;;;;;;;;;;12.25;69.36;103546.22;1259643;23;622;-70
2023/01/24 01:48:11;;;;;;;;;;;;;;;12.21;68.46;103547.22;1260017;23;619;-70
2023/01/24 01:49:02;;;;;;;;;;;;;;;12.21;68.33;103550.78;1260048;23;638;-70
2023/01/24 01:49:52;;;;;;;;;;;;;;;12.20;69.35;103546.34;1259803;23;622;-70
2023/01/24 01:50:43;;;;;;;;;;;;;;;12.18;69.32;103554.41;1260078;23;626;-70
2023/01/24 01:51:33;;;;;;;;;;;;;;;12.20;68.63;103546.34;1259678;23;614;-70
2023/01/24 01:52:24;;;;;;;;;;;;;;;12.20;68.89;103548.13;1261695;23;654;-70
2023/01/24 01:53:14;;;;;;;;;;;;;;;12.18;69.37;103544.66;1259833;23;640;-70
2023/01/24 01:54:04;;;;;;;;;;;;;;;12.20;68.39;103553.47;1259982;23;659;-70
2023/01/24 01:54:55;;;;;;;;;;;;;;;12.20;69.38;103545.47;1259729;23;591;-69
2023/01/24 01:55:45;;;;;;;;;;;;;;;12.16;68.94;103545.59;1259799;23;744;-71
2023/01/24 01:56:36;;;;;;;;;;;;;;;12.19;68.62;103555.28;1260195;23;611;-70
2023/01/24 01:57:27;;;;;;;;;;;;;;;12.20;68.99;103549.03;1261017;23;681;-70
2023/01/24 01:58:18;;;;;;;;;;;;;;;12.18;68.98;103547.34;1261541;23;582;-70
2023/01/24 01:59:08;;;;;;;;;;;;;;;12.18;68.63;103546.38;1261673;23;618;-70
2023/01/24 01:59:59;;;;;;;;;;;;;;;12.18;68.67;103558.91;1260489;23;1932;-70
2023/01/24 02:00:50;;;;;;;;;;;;;;;12.14;69.60;103557.22;1259794;23;662;-70
2023/01/24 02:01:40;;;;;;;;;;;;;;;12.15;68.77;103548.28;1261782;23;650;-70
2023/01/24 02:02:31;;;;;;;;;;;;;;;12.14;69.06;103547.41;1260150;23;650;-70
2023/01/24 02:03:40;;;;;;;;;;;;;;;12.16;68.84;103547.38;1260150;23;658;-70
2023/01/24 02:04:30;;;;;;;;;;;;;;;12.16;69.37;103550.06;1259951;23;646;-70
2023/01/24 02:05:21;;;;;;;;;;;;;;;12.16;68.81;103545.59;1261599;23;570;-70
2023/01/24 02:06:11;;;;;;;;;;;;;;;12.17;69.10;103551.81;1259724;23;611;-70
2023/01/24 02:07:02;;;;;;;;;;;;;;;12.18;68.56;103547.34;1260040;23;670;-70
2023/01/24 02:07:52;;;;;;;;;;;;;;;12.15;68.94;103543.81;1259723;23;689;-70
2023/01/24 02:08:42;;;;;;;;;;;;;;;12.14;68.64;103550.09;1259993;23;646;-70
2023/01/24 02:09:33;;;;;;;;;;;;;;;12.13;68.66;103548.34;1260265;23;665;-70
2023/01/24 02:10:23;;;;;;;;;;;;;;;12.11;69.55;103544.81;1261512;23;642;-70
2023/01/24 02:12:23;;;;;;;;;;;;;;;12.14;69.03;103547.41;1261750;23;578;-70
2023/01/24 02:13:13;;;;;;;;;;;;;;;12.13;68.58;103548.34;1259769;23;690;-70
2023/01/24 02:16:22;;;;;;;;;;;;;;;12.12;68.75;103537.69;1261628;23;684;-70
2023/01/24 02:17:12;;;;;;;;;;;;;;;12.12;69.62;103541.22;1259799;23;671;-70
2023/01/24 02:18:03;;;;;;;;;;;;;;;12.10;69.67;103532.38;1260084;23;645;-70
2023/01/24 02:18:57;;;;;;;;;;;;;;;12.10;68.87;103535.06;1259930;23;623;-70
2023/01/24 02:19:47;;;;;;;;;;;;;;;12.11;69.51;103541.28;1261458;23;1889;-70
2023/01/24 02:20:38;;;;;;;;;;;;;;;12.11;68.71;103536.81;1261388;23;642;-70
2023/01/24 02:21:28;;;;;;;;;;;;;;;12.15;69.52;103538.47;1259966;23;662;-70
2023/01/24 02:22:19;;;;;;;;;;;;;;;12.12;69.16;103543.91;1261553;23;688;-70
2023/01/24 02:23:09;;;;;;;;;;;;;;;12.13;69.41;103534.09;1260634;23;649;-70
2023/01/24 02:23:59;;;;;;;;;;;;;;;12.14;68.70;103541.19;1261800;23;617;-70
2023/01/24 02:24:50;;;;;;;;;;;;;;;12.12;69.37;103538.56;1261548;23;652;-70
2023/01/24 02:25:40;;;;;;;;;;;;;;;12.11;69.67;103534.13;1259867;23;618;-70
2023/01/24 02:26:31;;;;;;;;;;;;;;;12.11;69.03;103531.47;1259497;23;662;-71
2023/01/24 02:27:21;;;;;;;;;;;;;;;12.12;69.67;103538.56;1259741;23;654;-71
2023/01/24 02:28:12;;;;;;;;;;;;;;;12.13;68.89;103540.31;1259943;23;703;-70
2023/01/24 02:29:02;;;;;;;;;;;;;;;12.14;69.16;103536.72;1259731;23;650;-70
2023/01/24 02:29:52;;;;;;;;;;;;;;;12.16;69.23;103534.88;1259901;23;638;-70
2023/01/24 02:30:43;;;;;;;;;;;;;;;12.18;68.69;103530.34;1259654;23;646;-68
2023/01/24 02:31:33;;;;;;;;;;;;;;;12.16;69.07;103539.34;1259897;23;658;-70
2023/01/24 02:32:24;;;;;;;;;;;;;;;12.17;68.50;103535.75;1259918;23;599;-70
2023/01/24 02:33:14;;;;;;;;;;;;;;;12.18;69.42;103544.66;1259689;23;662;-70
2023/01/24 02:34:05;;;;;;;;;;;;;;;12.14;69.39;103542.06;1259898;23;809;-70
2023/01/24 02:34:55;;;;;;;;;;;;;;;12.15;69.46;103540.28;1259533;23;992;-71
2023/01/24 02:35:45;;;;;;;;;;;;;;;12.15;68.72;103533.13;1259822;23;674;-71
2023/01/24 02:36:37;;;;;;;;;;;;;;;12.15;68.53;103533.13;1261574;23;617;-71
2023/01/24 02:37:27;;;;;;;;;;;;;;;12.15;69.39;103541.16;1261618;23;598;-71
2023/01/24 02:38:17;;;;;;;;;;;;;;;12.16;69.44;103544.69;1259757;23;619;-71
2023/01/24 02:39:08;;;;;;;;;;;;;;;12.15;68.55;103541.16;1260091;23;615;-71
2023/01/24 02:39:59;;;;;;;;;;;;;;;12.15;68.83;103533.13;1259894;23;1897;-71
2023/01/24 02:40:49;;;;;;;;;;;;;;;12.14;68.72;103539.41;1258943;23;615;-72
2023/01/24 02:41:39;;;;;;;;;;;;;;;12.15;68.73;103542.94;1259824;23;606;-71
2023/01/24 02:42:30;;;;;;;;;;;;;;;12.13;68.96;103540.31;1260095;23;622;-71
2023/01/24 02:43:20;;;;;;;;;;;;;;;12.15;69.49;103537.59;1259907;23;646;-71
2023/01/24 02:44:11;;;;;;;;;;;;;;;12.15;69.44;103537.59;1259980;23;657;-71
2023/01/24 02:45:01;;;;;;;;;;;;;;;12.14;68.87;103535.84;1259743;23;623;-71
2023/01/24 02:45:52;;;;;;;;;;;;;;;12.13;69.57;103551.00;1259788;23;634;-71
2023/01/24 02:46:42;;;;;;;;;;;;;;;12.13;68.50;103548.34;1259848;23;603;-71
2023/01/24 02:47:32;;;;;;;;;;;;;;;12.10;69.28;103537.72;1259738;23;630;-71
2023/01/24 02:48:23;;;;;;;;;;;;;;;12.11;69.17;103544.81;1259992;23;614;-72
2023/01/24 02:49:13;;;;;;;;;;;;;;;12.12;68.56;103543.03;1261646;23;624;-71
2023/01/24 02:50:04;;;;;;;;;;;;;;;12.13;69.27;103534.97;1259877;23;665;-72
2023/01/24 02:53:31;;;;;;;;;;;;;;;12.11;69.26;103536.81;1261787;23;614;-71
2023/01/24 02:54:21;;;;;;;;;;;;;;;12.12;68.50;103537.69;1261530;23;751;-72
2023/01/24 02:55:11;;;;;;;;;;;;;;;12.13;68.40;103536.75;1259805;23;646;-72
2023/01/24 02:58:20;;;;;;;;;;;;;;;12.13;68.91;103540.31;1261879;23;653;-72
2023/01/24 02:59:10;;;;;;;;;;;;;;;12.14;68.78;103534.06;1259626;23;673;-71
2023/01/24 03:00:01;;;;;;;;;;;;;;;12.15;69.23;103532.25;1259804;23;1893;-71
2023/01/24 03:00:51;;;;;;;;;;;;;;;12.14;68.40;103534.06;1259804;23;614;-71
2023/01/24 03:01:41;;;;;;;;;;;;;;;12.14;69.17;103530.50;1259890;23;618;-71
2023/01/24 03:02:32;;;;;;;;;;;;;;;12.11;68.88;103526.13;1261359;23;657;-71
2023/01/24 03:03:22;;;;;;;;;;;;;;;12.10;68.96;103526.16;1259718;23;658;-72
2023/01/24 03:04:13;;;;;;;;;;;;;;;12.07;68.80;103534.25;1260023;23;627;-71
2023/01/24 03:05:04;;;;;;;;;;;;;;;12.07;69.42;103524.44;1261655;23;685;-71
2023/01/24 03:05:57;;;;;;;;;;;;;;;12.07;68.80;103523.56;1259717;23;602;-71
2023/01/24 03:06:48;;;;;;;;;;;;;;;12.08;68.82;103520.84;1259610;23;636;-71
2023/01/24 03:07:44;;;;;;;;;;;;;;;12.07;69.04;103526.25;1261563;23;602;-71
2023/01/24 03:08:34;;;;;;;;;;;;;;;12.08;68.78;103526.19;1261319;23;618;-71
2023/01/24 03:09:34;;;;;;;;;;;;;;;12.08;69.56;103522.66;1259796;23;626;-71
2023/01/24 03:10:25;;;;;;;;;;;;;;;12.07;68.68;103526.25;1259571;23;623;-71
2023/01/24 03:11:15;;;;;;;;;;;;;;;12.08;68.70;103525.31;1261394;23;700;-71
2023/01/24 03:35:09;;;;;;;;;;;;;;;12.03;69.67;103521.88;1261355;23;1253;-72
2023/01/24 03:36:01;;;;;;;;;;;;;;;12.02;69.39;103521.00;1259691;23;705;-72
2023/01/24 03:36:51;;;;;;;;;;;;;;;11.98;69.18;103519.38;1261371;23;610;-72
2023/01/24 03:40:00;;;;;;;;;;;;;;;12.01;69.60;103519.25;1260211;23;1905;-71
2023/01/24 03:40:50;;;;;;;;;;;;;;;12.01;68.96;103523.72;1261195;23;665;-72
2023/01/24 03:41:41;;;;;;;;;;;;;;;12.00;68.79;103522.84;1260290;23;650;-72
2023/01/24 03:42:31;;;;;;;;;;;;;;;11.99;69.20;103518.47;1259466;23;744;-72
2023/01/24 03:43:22;;;;;;;;;;;;;;;11.97;68.93;103522.97;1259850;23;624;-72
2023/01/24 03:44:12;;;;;;;;;;;;;;;11.96;69.04;103517.66;1261458;23;633;-72
2023/01/24 03:45:03;;;;;;;;;;;;;;;11.99;68.80;103522.91;1259617;23;814;-71
2023/01/24 03:46:00;;;;;;;;;;;;;;;11.98;69.67;103516.69;1259975;23;618;-71
2023/01/24 03:46:51;;;;;;;;;;;;;;;11.98;69.11;103524.72;1262132;23;637;-71
2023/01/24 03:47:41;;;;;;;;;;;;;;;12.02;69.29;103517.47;1259703;23;611;-71
2023/01/24 03:48:36;;;;;;;;;;;;;;;12.00;69.10;103522.00;1260004;23;662;-72
2023/01/24 03:52:54;;;;;;;;;;;;;;;11.95;69.35;103522.13;1261180;23;688;-72
2023/01/24 03:53:44;;;;;;;;;;;;;;;11.97;69.82;103519.41;1260478;23;654;-72
2023/01/24 03:54:35;;;;;;;;;;;;;;;11.98;68.82;103518.50;1261281;23;598;-72
2023/01/24 03:55:25;;;;;;;;;;;;;;;11.97;68.88;103522.97;1261321;23;653;-71
2023/01/24 03:56:15;;;;;;;;;;;;;;;11.96;69.50;103520.34;1259714;23;654;-72
2023/01/24 03:57:06;;;;;;;;;;;;;;;11.92;68.99;103518.66;1261394;23;638;-72
2023/01/24 03:57:56;;;;;;;;;;;;;;;11.95;69.47;103527.47;1259414;23;604;-70
2023/01/24 03:58:47;;;;;;;;;;;;;;;11.95;69.04;103526.59;1259780;23;658;-71
2023/01/24 03:59:37;;;;;;;;;;;;;;;11.96;68.84;103526.56;1259877;23;650;-71
2023/01/24 04:00:27;;;;;;;;;;;;;;;11.95;69.49;103531.94;1255079;23;634;-71
2023/01/24 04:01:18;;;;;;;;;;;;;;;11.95;69.83;103535.50;1255199;23;701;-71
2023/01/24 04:02:08;;;;;;;;;;;;;;;11.94;69.25;103533.72;1260506;23;647;-71
2023/01/24 04:02:59;;;;;;;;;;;;;;;11.96;69.28;103529.22;1259759;23;946;-71
2023/01/24 04:03:49;;;;;;;;;;;;;;;11.93;69.05;103531.97;1261302;23;708;-70
2023/01/24 04:05:49;;;;;;;;;;;;;;;11.96;68.94;103531.91;1261136;23;661;-70
2023/01/24 04:06:39;;;;;;;;;;;;;;;11.96;69.03;103526.56;1260437;23;693;-71
2023/01/24 04:07:30;;;;;;;;;;;;;;;11.95;68.89;103535.50;1261365;23;630;-71
2023/01/24 04:08:20;;;;;;;;;;;;;;;11.94;69.47;103533.72;1259811;23;630;-72
2023/01/24 04:09:10;;;;;;;;;;;;;;;11.95;69.49;103527.47;1261142;23;636;-71
2023/01/24 04:10:01;;;;;;;;;;;;;;;11.94;68.88;103531.06;1259695;23;634;-72
2023/01/24 04:10:51;;;;;;;;;;;;;;;11.95;69.46;103532.81;1259947;23;607;-71
2023/01/24 04:11:42;;;;;;;;;;;;;;;11.94;68.79;103531.06;1261394;23;732;-71
2023/01/24 04:12:32;;;;;;;;;;;;;;;11.95;69.07;103535.50;1259509;23;620;-71
2023/01/24 04:13:23;;;;;;;;;;;;;;;11.94;69.64;103532.84;1259600;23;638;-71
2023/01/24 04:14:13;;;;;;;;;;;;;;;11.94;69.66;103538.19;1259809;23;675;-71
2023/01/24 04:15:03;;;;;;;;;;;;;;;11.95;69.49;103530.16;1254861;23;670;-71
2023/01/24 04:15:54;;;;;;;;;;;;;;;11.91;69.39;103528.47;1255098;23;681;-69
2023/01/24 04:16:44;;;;;;;;;;;;;;;11.91;69.15;103527.59;1260503;23;611;-70
2023/01/24 04:17:35;;;;;;;;;;;;;;;11.92;69.22;103530.22;1259579;23;662;-69
2023/01/24 04:18:25;;;;;;;;;;;;;;;11.93;69.74;103534.66;1259646;23;615;-69
2023/01/24 04:19:16;;;;;;;;;;;;;;;11.90;69.87;103532.06;1259554;23;622;-69
2023/01/24 04:20:06;;;;;;;;;;;;;;;11.94;69.40;103528.38;1259721;23;1877;-70
2023/01/24 04:20:57;;;;;;;;;;;;;;;11.95;69.05;103538.16;1261155;23;776;-72
2023/01/24 04:21:47;;;;;;;;;;;;;;;11.94;68.94;103539.06;1259472;23;649;-72
2023/01/24 04:22:38;;;;;;;;;;;;;;;11.95;68.87;103534.59;1260830;23;629;-72
2023/01/24 04:23:28;;;;;;;;;;;;;;;11.94;68.68;103539.06;1259917;23;665;-72
2023/01/24 04:24:18;;;;;;;;;;;;;;;11.95;69.70;103540.84;1259496;23;620;-71
2023/01/24 04:25:09;;;;;;;;;;;;;;;11.94;69.53;103539.06;1259678;23;642;-71
2023/01/24 04:26:00;;;;;;;;;;;;;;;11.93;69.73;103533.78;1254948;23;677;-70
2023/01/24 04:26:51;;;;;;;;;;;;;;;11.96;69.73;103537.25;1254979;23;614;-70
2023/01/24 04:27:41;;;;;;;;;;;;;;;11.95;69.60;103532.81;1260548;23;617;-70
2023/01/24 04:28:31;;;;;;;;;;;;;;;11.93;68.92;103537.31;1259427;23;654;-70
2023/01/24 04:29:22;;;;;;;;;;;;;;;11.94;69.45;103533.72;1259810;23;677;-69
2023/01/24 04:30:12;;;;;;;;;;;;;;;11.94;69.39;103539.06;1259453;23;657;-70
2023/01/24 04:31:03;;;;;;;;;;;;;;;11.96;69.14;103536.38;1259577;23;654;-69
2023/01/24 04:31:53;;;;;;;;;;;;;;;11.95;68.84;103539.97;1259153;23;692;-69
2023/01/24 04:32:44;;;;;;;;;;;;;;;11.96;69.06;103539.91;1259551;23;670;-70
2023/01/24 04:33:34;;;;;;;;;;;;;;;11.97;68.79;103538.13;1259761;23;641;-71
2023/01/24 04:34:24;;;;;;;;;;;;;;;11.99;68.79;103537.16;1255151;23;665;-70
2023/01/24 04:35:15;;;;;;;;;;;;;;;11.98;69.17;103538.09;1254932;23;701;-70
2023/01/24 04:36:05;;;;;;;;;;;;;;;11.98;69.23;103543.44;1260309;23;622;-70
2023/01/24 04:36:56;;;;;;;;;;;;;;;11.99;69.20;103541.63;1259027;23;902;-70
2023/01/24 04:37:46;;;;;;;;;;;;;;;12.00;69.09;103541.56;1259466;23;764;-71
2023/01/24 04:38:37;;;;;;;;;;;;;;;12.00;69.61;103538.88;1259641;23;618;-70
2023/01/24 04:39:27;;;;;;;;;;;;;;;11.99;68.78;103542.50;1259901;23;689;-70
2023/01/24 04:40:17;;;;;;;;;;;;;;;11.98;69.35;103540.75;1259394;23;1936;-70
2023/01/24 04:41:12;;;;;;;;;;;;;;;11.95;69.11;103545.28;1260019;23;634;-70
2023/01/24 04:42:02;;;;;;;;;;;;;;;11.93;69.71;103540.00;1261392;23;649;-70
2023/01/24 04:42:53;;;;;;;;;;;;;;;11.93;69.32;103541.78;1259555;23;631;-71
2023/01/24 04:43:43;;;;;;;;;;;;;;;11.93;69.04;103541.78;1259656;23;658;-70
2023/01/24 04:44:33;;;;;;;;;;;;;;;11.90;69.08;103540.06;1261177;23;665;-71
2023/01/24 04:45:24;;;;;;;;;;;;;;;11.90;69.35;103544.53;1259596;23;670;-71
2023/01/24 04:46:14;;;;;;;;;;;;;;;11.89;69.14;103543.66;1260432;23;653;-71
2023/01/24 04:47:05;;;;;;;;;;;;;;;11.90;69.96;103539.19;1259639;23;654;-71
2023/01/24 04:47:55;;;;;;;;;;;;;;;11.88;69.25;103544.56;1261233;23;714;-71
2023/01/24 04:48:45;;;;;;;;;;;;;;;11.88;69.36;103543.69;1259667;23;658;-70
2023/01/24 04:49:36;;;;;;;;;;;;;;;11.90;69.59;103539.19;1259680;23;624;-71
2023/01/24 04:50:26;;;;;;;;;;;;;;;11.89;69.61;103549.00;1259447;23;623;-71
2023/01/24 04:51:17;;;;;;;;;;;;;;;11.90;69.93;103541.88;1259245;23;693;-70
2023/01/24 04:52:07;;;;;;;;;;;;;;;11.93;69.44;103548.00;1259406;23;666;-70
2023/01/24 04:52:58;;;;;;;;;;;;;;;11.93;69.41;103548.00;1255036;23;703;-71
2023/01/24 04:53:48;;;;;;;;;;;;;;;11.93;68.80;103545.34;1254983;23;634;-70
2023/01/24 04:54:38;;;;;;;;;;;;;;;11.94;68.83;103548.88;1260305;23;631;-70
2023/01/24 04:55:29;;;;;;;;;;;;;;;11.93;69.25;103548.00;1260004;23;746;-71
2023/01/24 04:56:19;;;;;;;;;;;;;;;11.92;69.65;103546.25;1259458;23;666;-71
2023/01/24 04:57:10;;;;;;;;;;;;;;;11.91;69.35;103549.84;1259544;23;682;-71
2023/01/24 04:58:00;;;;;;;;;;;;;;;11.92;69.02;103551.59;1259738;23;634;-71
2023/01/24 04:58:51;;;;;;;;;;;;;;;11.92;68.84;103556.06;1259656;23;653;-72
2023/01/24 04:59:41;;;;;;;;;;;;;;;11.89;69.13;103554.34;1259806;23;618;-71
2023/01/24 05:00:31;;;;;;;;;;;;;;;11.90;69.35;103553.44;1259436;23;663;-70
2023/01/24 05:01:22;;;;;;;;;;;;;;;11.87;69.95;103557.97;1259665;23;692;-70
2023/01/24 05:02:12;;;;;;;;;;;;;;;11.88;69.77;103557.94;1261277;23;749;-70
2023/01/24 05:03:03;;;;;;;;;;;;;;;11.89;69.84;103558.81;1259425;23;634;-70
2023/01/24 05:03:58;;;;;;;;;;;;;;;11.87;69.93;103557.97;1259770;23;663;-70
2023/01/24 05:04:48;;;;;;;;;;;;;;;11.83;69.19;103558.06;1261452;23;614;-70
2023/01/24 05:05:39;;;;;;;;;;;;;;;11.86;69.29;103557.09;1259739;23;666;-70